Jamestown, KS (66948)

3:54 PM CDT on August 28, 2015 (GMT -0500)
Joe's Place | | Change Station
CLOSE
Current Station
Personal Weather Station
Location: Concordia, KS
Elevation: 1440 ft
Nearby Weather Stations

Elev 1440 ft 39.57 °N, 97.65 °W | Updated 16 seconds ago

Partly Cloudy
Partly Cloudy
82.3 °F
Feels Like 86 °F
N
2.0
Wind Variable Wind from WSW
Gusts 3.0 mph

Today
High -- | Low -- °F
--% Chance of Precip.
Yesterday
High -- | Low -- °F
Precip. -- in
6:55 AM 8:08 PM
Waxing Gibbous, 99% visible
Pressure 29.86 in
Visibility 10.0 miles
Clouds Scattered Clouds 4700 ft
Heat Index 86 °F
Dew Point 70 °F
Humidity 66%
Rainfall 0.11 in
Snow Depth Not available.
UV 7 out of 12
Pollen 4.80 out of 12
Air Quality Not available.
Flu Activity Not available.
METAR KCNK 281955Z AUTO 29008KT 10SM SCT047 26/21 A2990 RMK AO2 SLP109 T02610206
Pressure 29.86 in
Visibility 10.0 miles
Clouds Scattered Clouds 4700 ft
Heat Index 86 °F
Dew Point 70 °F
Humidity 66%
Rainfall 0.11 in
Snow Depth Not available.
UV 7 out of 12
Pollen 4.80 out of 12
Air Quality Not available.
Flu Activity Not available.
METAR KCNK 281955Z AUTO 29008KT 10SM SCT047 26/21 A2990 RMK AO2 SLP109 T02610206

10-Day Weather Forecast

×

Almanac

Astronomy

Aug. 28, 2015 Rise Set
Actual Time
Civil Twilight
Nautical Twilight
Astronomical Twilight
Moon
Length of Visible Light
Length of Day
Tomorrow will be .
, % of the Moon is Illuminated

Today's Extremes

State Highs State Lows

Community

WunderPhotos

Upload Photos

1,850,481 photos uploaded!

WunderBlogs® & News

Nearby

Air Quality

  Air Quality AQ Index Pollutant
Not available.

Snow Depth

Station Depth Elevation

Earthquake Activity

City Distance Mag. Time & Date
Minimum magnitude displayed is 2.5.

Coastal Water Temperatures

Place Temperature

Stations

Nearby Weather Stations

Station Location Temp. Windchill Dew Point Humidity Wind Precip. Elev Updated Type